Time,TemperatureF,DewpointF,PressureIn,WindDirection,WindDirectionDegrees,WindSpeedMPH,WindSpeedGustMPH,Humidity,HourlyPrecipIn,Conditions,Clouds,dailyrainin,SoftwareType,DateUTC
2013-06-08 08:25:00,53.8,53.0,29.72,SE,138,0.0,1.0,97,0.00,,,0.62,Wunderground v.1.15,2013-06-08 12:25:00,
2013-06-08 08:30:00,54.1,53.3,29.72,SE,138,0.0,1.0,97,0.00,,,0.62,Wunderground v.1.15,2013-06-08 12:30:00,
2013-06-08 08:35:00,54.1,53.3,29.72,ESE,113,0.0,1.0,97,0.00,,,0.62,Wunderground v.1.15,2013-06-08 12:35:00,
2013-06-08 08:40:00,54.3,53.5,29.72,SE,138,0.0,1.0,97,0.00,,,0.62,Wunderground v.1.15,2013-06-08 12:40:00,
2013-06-08 08:45:00,54.6,53.8,29.72,SE,143,0.0,1.0,97,0.00,,,0.62,Wunderground v.1.15,2013-06-08 12:45:00,
2013-06-08 08:50:00,55.1,54.3,29.72,SE,143,0.0,1.0,97,0.00,,,0.62,Wunderground v.1.15,2013-06-08 12:50:00,
2013-06-08 08:55:00,55.3,54.2,29.72,SSE,153,0.0,1.0,96,0.00,,,0.62,Wunderground v.1.15,2013-06-08 12:55:00,
2013-06-08 09:00:00,55.7,54.6,29.72,SSE,154,0.0,1.0,96,0.00,,,0.62,Wunderground v.1.15,2013-06-08 13:00:00,
2013-06-08 09:05:00,55.8,54.1,29.72,SE,136,0.0,1.0,94,0.00,,,0.62,Wunderground v.1.15,2013-06-08 13:05:00,
2013-06-08 09:10:00,56.0,54.6,29.72,SSE,168,0.0,1.0,95,0.00,,,0.62,Wunderground v.1.15,2013-06-08 13:10:00,
2013-06-08 09:15:00,56.1,54.7,29.72,SE,130,0.0,1.0,95,0.00,,,0.62,Wunderground v.1.15,2013-06-08 13:15:00,
2013-06-08 09:20:00,56.3,54.9,29.72,SE,129,0.0,1.0,95,0.00,,,0.62,Wunderground v.1.15,2013-06-08 13:20:00,
2013-06-08 09:25:00,56.4,55.0,29.72,SE,129,0.0,1.0,95,0.00,,,0.62,Wunderground v.1.15,2013-06-08 13:25:00,
2013-06-08 09:30:00,56.7,55.3,29.72,SE,129,0.0,1.0,95,0.00,,,0.62,Wunderground v.1.15,2013-06-08 13:30:00,
2013-06-08 09:35:00,56.9,55.5,29.71,SE,129,0.0,1.0,95,0.00,,,0.62,Wunderground v.1.15,2013-06-08 13:35:00,
2013-06-08 09:40:00,56.7,55.0,29.71,SE,129,0.0,1.0,94,0.00,,,0.62,Wunderground v.1.15,2013-06-08 13:40:00,
2013-06-08 09:45:00,57.0,55.3,29.71,SE,129,0.0,1.0,94,0.00,,,0.62,Wunderground v.1.15,2013-06-08 13:45:00,
2013-06-08 09:55:00,57.5,55.2,29.71,SSW,194,0.0,1.0,92,0.00,,,0.62,Wunderground v.1.15,2013-06-08 13:55:00,
2013-06-08 10:00:00,57.5,55.2,29.71,SE,135,1.0,1.0,92,0.00,,,0.62,Wunderground v.1.15,2013-06-08 14:00:00,
2013-06-08 10:05:00,57.6,55.6,29.71,SE,143,1.0,1.0,93,0.00,,,0.62,Wunderground v.1.15,2013-06-08 14:05:00,
2013-06-08 10:10:00,57.8,56.1,29.71,SE,146,1.0,1.0,94,0.00,,,0.62,Wunderground v.1.15,2013-06-08 14:10:00,
2013-06-08 10:15:00,58.4,56.4,29.71,South,176,0.0,1.0,93,0.00,,,0.62,Wunderground v.1.15,2013-06-08 14:15:00,
2013-06-08 10:20:00,58.5,56.2,29.72,South,170,0.0,1.0,92,0.00,,,0.62,Wunderground v.1.15,2013-06-08 14:20:00,
2013-06-08 10:25:00,58.6,56.0,29.71,SSE,162,1.0,1.0,91,0.00,,,0.62,Wunderground v.1.15,2013-06-08 14:25:00,
2013-06-08 10:30:00,58.8,56.2,29.71,SSE,155,1.0,1.0,91,0.00,,,0.62,Wunderground v.1.15,2013-06-08 14:30:00,
2013-06-08 10:40:00,59.7,56.5,29.71,SSW,198,0.0,1.0,89,0.00,,,0.62,Wunderground v.1.15,2013-06-08 14:40:00,
2013-06-08 10:45:00,60.4,57.1,29.71,SSW,197,1.0,1.0,89,0.00,,,0.62,Wunderground v.1.15,2013-06-08 14:45:00,
2013-06-08 10:50:00,60.9,57.3,29.72,SE,125,1.0,1.0,88,0.00,,,0.62,Wunderground v.1.15,2013-06-08 14:50:00,
2013-06-08 10:55:00,61.3,57.4,29.72,SSW,207,1.0,1.0,87,0.00,,,0.62,Wunderground v.1.15,2013-06-08 14:55:00,
2013-06-08 11:00:00,61.3,57.1,29.72,NE,39,0.0,1.0,86,0.00,,,0.62,Wunderground v.1.15,2013-06-08 15:00:00,
2013-06-08 11:05:00,61.8,56.2,29.71,ESE,110,0.0,1.0,82,0.00,,,0.62,Wunderground v.1.15,2013-06-08 15:05:00,
2013-06-08 11:15:00,63.3,57.0,29.71,NE,49,1.0,3.0,80,0.00,,,0.62,Wunderground v.1.15,2013-06-08 15:15:00,
2013-06-08 11:20:00,64.0,56.6,29.71,ESE,107,1.0,1.0,77,0.00,,,0.62,Wunderground v.1.15,2013-06-08 15:20:00,
2013-06-08 11:25:00,64.2,55.7,29.71,NNW,340,1.0,4.0,74,0.00,,,0.62,Wunderground v.1.15,2013-06-08 15:25:00,
2013-06-08 11:30:00,64.5,56.0,29.71,SSE,150,2.0,2.0,74,0.00,,,0.62,Wunderground v.1.15,2013-06-08 15:30:00,
2013-06-08 11:35:00,64.4,55.6,29.71,NNE,15,3.0,4.0,73,0.00,,,0.62,Wunderground v.1.15,2013-06-08 15:35:00,
2013-06-08 11:45:00,63.8,55.4,29.72,WNW,302,3.0,4.0,74,0.00,,,0.62,Wunderground v.1.15,2013-06-08 15:45:00,
2013-06-08 11:50:00,63.7,54.9,29.72,North,357,3.0,4.0,73,0.00,,,0.62,Wunderground v.1.15,2013-06-08 15:50:00,
2013-06-08 11:55:00,64.6,55.4,29.72,WNW,294,2.0,4.0,72,0.00,,,0.62,Wunderground v.1.15,2013-06-08 15:55:00,
2013-06-08 12:00:00,65.0,56.1,29.72,NW,315,2.0,2.0,73,0.00,,,0.62,Wunderground v.1.15,2013-06-08 16:00:00,
2013-06-08 12:05:00,65.4,57.6,29.72,NNW,337,1.0,4.0,76,0.00,,,0.62,Wunderground v.1.15,2013-06-08 16:05:00,
2013-06-08 12:10:00,64.9,54.9,29.72,ENE,58,2.0,2.0,70,0.00,,,0.62,Wunderground v.1.15,2013-06-08 16:10:00,
2013-06-08 12:20:00,64.5,56.4,29.72,North,1,2.0,2.0,75,0.00,,,0.62,Wunderground v.1.15,2013-06-08 16:20:00,
2013-06-08 12:25:00,64.5,57.1,29.73,SW,214,2.0,2.0,77,0.00,,,0.62,Wunderground v.1.15,2013-06-08 16:25:00,
2013-06-08 12:30:00,64.6,57.9,29.73,SSE,158,1.0,2.0,79,0.00,,,0.62,Wunderground v.1.15,2013-06-08 16:30:00,
2013-06-08 12:35:00,64.7,58.4,29.73,SSE,158,1.0,2.0,80,0.00,,,0.62,Wunderground v.1.15,2013-06-08 16:35:00,
2013-06-08 12:40:00,64.9,56.0,29.73,NNW,339,1.0,1.0,73,0.00,,,0.62,Wunderground v.1.15,2013-06-08 16:40:00,
2013-06-08 12:50:00,65.5,56.6,29.73,WNW,287,1.0,1.0,73,0.00,,,0.62,Wunderground v.1.15,2013-06-08 16:50:00,
2013-06-08 12:55:00,65.8,57.3,29.73,SSE,148,1.0,1.0,74,0.00,,,0.62,Wunderground v.1.15,2013-06-08 16:55:00,
2013-06-08 13:00:00,66.4,58.6,29.73,ESE,115,1.0,2.0,76,0.00,,,0.62,Wunderground v.1.15,2013-06-08 17:00:00,
2013-06-08 13:05:00,67.1,58.9,29.73,SSW,197,1.0,2.0,75,0.00,,,0.62,Wunderground v.1.15,2013-06-08 17:05:00,
2013-06-08 13:10:00,67.3,58.0,29.73,WSW,238,2.0,2.0,72,0.00,,,0.62,Wunderground v.1.15,2013-06-08 17:10:00,
2013-06-08 13:15:00,67.4,57.7,29.74,WSW,245,2.0,2.0,71,0.00,,,0.62,Wunderground v.1.15,2013-06-08 17:15:00,
2013-06-08 13:20:00,66.9,56.8,29.74,SSE,163,2.0,2.0,70,0.00,,,0.62,Wunderground v.1.15,2013-06-08 17:20:00,
2013-06-08 13:25:00,66.9,58.7,29.74,SW,222,2.0,4.0,75,0.00,,,0.62,Wunderground v.1.15,2013-06-08 17:25:00,
2013-06-08 13:30:00,66.9,56.8,29.74,SSE,166,1.0,1.0,70,0.00,,,0.62,Wunderground v.1.15,2013-06-08 17:30:00,
2013-06-08 13:35:00,67.0,57.3,29.74,SE,132,1.0,1.0,71,0.00,,,0.62,Wunderground v.1.15,2013-06-08 17:35:00,
2013-06-08 13:40:00,67.3,57.6,29.74,NNW,344,1.0,4.0,71,0.00,,,0.62,Wunderground v.1.15,2013-06-08 17:40:00,
2013-06-08 13:45:00,67.4,57.7,29.74,SSE,164,2.0,4.0,71,0.00,,,0.62,Wunderground v.1.15,2013-06-08 17:45:00,
2013-06-08 13:55:00,67.3,58.0,29.74,SSE,152,1.0,1.0,72,0.00,,,0.62,Wunderground v.1.15,2013-06-08 17:55:00,
2013-06-08 14:00:00,67.1,57.8,29.75,NW,320,1.0,3.0,72,0.00,,,0.62,Wunderground v.1.15,2013-06-08 18:00:00,
2013-06-08 14:05:00,67.2,59.0,29.74,NE,36,2.0,3.0,75,0.00,,,0.62,Wunderground v.1.15,2013-06-08 18:05:00,
2013-06-08 14:10:00,67.5,57.8,29.74,SE,143,1.0,3.0,71,0.00,,,0.62,Wunderground v.1.15,2013-06-08 18:10:00,
2013-06-08 14:15:00,67.4,58.1,29.74,SSE,160,1.0,3.0,72,0.00,,,0.62,Wunderground v.1.15,2013-06-08 18:15:00,
2013-06-08 14:25:00,66.7,58.5,29.74,SW,222,1.0,1.0,75,0.00,,,0.62,Wunderground v.1.15,2013-06-08 18:25:00,
2013-06-08 14:30:00,66.5,57.6,29.74,SE,138,1.0,3.0,73,0.00,,,0.62,Wunderground v.1.15,2013-06-08 18:30:00,
2013-06-08 14:35:00,66.4,58.6,29.74,SE,135,1.0,3.0,76,0.00,,,0.62,Wunderground v.1.15,2013-06-08 18:35:00,
2013-06-08 14:40:00,66.4,58.6,29.74,SE,131,1.0,1.0,76,0.00,,,0.62,Wunderground v.1.15,2013-06-08 18:40:00,
2013-06-08 14:45:00,66.2,57.3,29.74,ENE,69,1.0,1.0,73,0.00,,,0.62,Wunderground v.1.15,2013-06-08 18:45:00,
2013-06-08 14:50:00,66.4,58.2,29.75,ESE,110,0.0,1.0,75,0.00,,,0.62,Wunderground v.1.15,2013-06-08 18:50:00,
2013-06-08 15:00:00,66.4,58.2,29.76,ENE,63,0.0,1.0,75,0.00,,,0.62,Wunderground v.1.15,2013-06-08 19:00:00,
2013-06-08 15:05:00,66.2,59.1,29.76,East,96,0.0,1.0,78,0.00,,,0.62,Wunderground v.1.15,2013-06-08 19:05:00,
2013-06-08 15:10:00,65.9,57.7,29.77,ENE,59,1.0,1.0,75,0.00,,,0.62,Wunderground v.1.15,2013-06-08 19:10:00,
2013-06-08 15:15:00,65.7,57.9,29.77,ESE,117,1.0,1.0,76,0.00,,,0.62,Wunderground v.1.15,2013-06-08 19:15:00,
2013-06-08 15:20:00,65.4,57.3,29.78,NW,320,1.0,1.0,75,0.00,,,0.62,Wunderground v.1.15,2013-06-08 19:20:00,
2013-06-08 15:30:00,64.9,57.2,29.78,NE,50,2.0,2.0,76,0.00,,,0.62,Wunderground v.1.15,2013-06-08 19:30:00,
2013-06-08 15:35:00,64.9,57.5,29.79,NNE,31,1.0,2.0,77,0.00,,,0.62,Wunderground v.1.15,2013-06-08 19:35:00,
2013-06-08 15:40:00,65.0,58.0,29.78,SSE,155,1.0,1.0,78,0.00,,,0.62,Wunderground v.1.15,2013-06-08 19:40:00,
2013-06-08 15:45:00,64.9,57.9,29.80,SE,125,1.0,3.0,78,0.00,,,0.62,Wunderground v.1.15,2013-06-08 19:45:00,
2013-06-08 15:50:00,64.6,57.9,29.80,SE,133,1.0,1.0,79,0.00,,,0.62,Wunderground v.1.15,2013-06-08 19:50:00,
2013-06-08 15:55:00,64.3,58.0,29.79,SE,131,2.0,2.0,80,0.00,,,0.62,Wunderground v.1.15,2013-06-08 19:55:00,
2013-06-08 16:05:00,64.3,59.0,29.78,NNW,339,0.0,1.0,83,0.00,,,0.62,Wunderground v.1.15,2013-06-08 20:05:00,
2013-06-08 16:10:00,64.5,58.2,29.79,West,264,0.0,1.0,80,0.00,,,0.62,Wunderground v.1.15,2013-06-08 20:10:00,
2013-06-08 16:15:00,64.7,58.7,29.80,SSW,212,0.0,1.0,81,0.00,,,0.62,Wunderground v.1.15,2013-06-08 20:15:00,
2013-06-08 16:20:00,64.8,58.1,29.79,South,170,1.0,1.0,79,0.00,,,0.62,Wunderground v.1.15,2013-06-08 20:20:00,
2013-06-08 16:25:00,65.0,58.3,29.78,SE,143,2.0,2.0,79,0.00,,,0.62,Wunderground v.1.15,2013-06-08 20:25:00,
2013-06-08 16:35:00,65.5,59.2,29.80,SSE,155,1.0,1.0,80,0.00,,,0.62,Wunderground v.1.15,2013-06-08 20:35:00,
2013-06-08 16:40:00,65.7,58.3,29.80,ESE,121,1.0,1.0,77,0.00,,,0.62,Wunderground v.1.15,2013-06-08 20:40:00,
2013-06-08 16:45:00,65.9,58.5,29.80,SW,231,0.0,1.0,77,0.00,,,0.62,Wunderground v.1.15,2013-06-08 20:45:00,
2013-06-08 16:50:00,66.0,58.6,29.81,SW,224,0.0,1.0,77,0.00,,,0.62,Wunderground v.1.15,2013-06-08 20:50:00,
2013-06-08 16:55:00,65.8,58.4,29.81,SSE,160,1.0,1.0,77,0.00,,,0.62,Wunderground v.1.15,2013-06-08 20:55:00,
2013-06-08 17:00:00,65.8,59.1,29.81,NNW,337,1.0,1.0,79,0.00,,,0.62,Wunderground v.1.15,2013-06-08 21:00:00,
2013-06-08 17:05:00,65.6,58.9,29.82,ESE,120,1.0,1.0,79,0.00,,,0.62,Wunderground v.1.15,2013-06-08 21:05:00,
2013-06-08 17:10:00,65.5,58.1,29.82,NNW,342,1.0,1.0,77,0.00,,,0.62,Wunderground v.1.15,2013-06-08 21:10:00,
2013-06-08 17:15:00,65.5,59.5,29.81,SSE,162,1.0,1.0,81,0.00,,,0.62,Wunderground v.1.15,2013-06-08 21:15:00,
2013-06-08 17:20:00,65.5,58.5,29.82,SSE,162,0.0,1.0,78,0.00,,,0.62,Wunderground v.1.15,2013-06-08 21:20:00,
2013-06-08 17:25:00,65.5,58.5,29.83,SSE,152,0.0,1.0,78,0.00,,,0.62,Wunderground v.1.15,2013-06-08 21:25:00,
2013-06-08 17:30:00,65.5,58.8,29.83,SSE,149,0.0,1.0,79,0.00,,,0.62,Wunderground v.1.15,2013-06-08 21:30:00,
2013-06-08 17:40:00,65.1,58.4,29.84,NE,49,1.0,2.0,79,0.00,,,0.62,Wunderground v.1.15,2013-06-08 21:40:00,
2013-06-08 17:45:00,65.0,58.3,29.84,North,354,0.0,2.0,79,0.00,,,0.62,Wunderground v.1.15,2013-06-08 21:45:00,
2013-06-08 17:50:00,64.8,58.1,29.84,SSE,148,0.0,2.0,79,0.00,,,0.62,Wunderground v.1.15,2013-06-08 21:50:00,
2013-06-08 17:55:00,64.5,58.2,29.84,SSW,203,1.0,2.0,80,0.00,,,0.62,Wunderground v.1.15,2013-06-08 21:55:00,
2013-06-08 18:00:00,64.1,57.8,29.84,South,187,1.0,1.0,80,0.00,,,0.62,Wunderground v.1.15,2013-06-08 22:00:00,
2013-06-08 18:10:00,63.6,57.7,29.84,NE,55,1.0,1.0,81,0.00,,,0.62,Wunderground v.1.15,2013-06-08 22:10:00,
2013-06-08 18:15:00,63.4,58.1,29.85,SSW,210,1.0,1.0,83,0.00,,,0.62,Wunderground v.1.15,2013-06-08 22:15:00,
2013-06-08 18:20:00,63.3,57.7,29.85,SSW,195,0.0,1.0,82,0.00,,,0.62,Wunderground v.1.15,2013-06-08 22:20:00,
2013-06-08 18:25:00,63.2,57.9,29.85,South,174,1.0,1.0,83,0.00,,,0.62,Wunderground v.1.15,2013-06-08 22:25:00,
2013-06-08 18:30:00,63.0,57.1,29.85,South,173,1.0,1.0,81,0.00,,,0.62,Wunderground v.1.15,2013-06-08 22:30:00,
2013-06-08 18:35:00,63.1,57.5,29.85,SSE,158,1.0,1.0,82,0.00,,,0.62,Wunderground v.1.15,2013-06-08 22:35:00,
2013-06-08 18:45:00,63.0,57.8,29.86,WNW,300,0.0,1.0,83,0.00,,,0.62,Wunderground v.1.15,2013-06-08 22:45:00,